Time;durP1;ratioP1;P1;durP2;ratioP2;P2;SDS_P1;SDS_P2;PMS_P1;PMS_P2;Temp;Humidity;BMP_temperature;BMP_pressure;BME280_temperature;BME280_humidity;BME280_pressure;Samples;Min_cycle;Max_cycle;Signal;HPM_P1;HPM_P2
2023/04/25 00:00:53;;;;;;;1.63;1.00;;;;;;;8.57;71.79;97017.72;6077656;29;20251;-43
2023/04/25 00:03:55;;;;;;;1.93;1.30;;;;;;;8.53;72.71;97026.22;6076954;29;20244;-43
2023/04/25 00:07:01;;;;;;;1.47;1.00;;;;;;;8.48;72.70;97018.16;6076843;29;20619;-42
2023/04/25 00:10:04;;;;;;;3.77;1.70;;;;;;;8.58;71.92;97016.72;6075652;29;20236;-42
2023/04/25 00:13:06;;;;;;;3.50;1.60;;;;;;;8.55;69.00;97014.53;6075856;29;20266;-42
2023/04/25 00:16:08;;;;;;;1.83;1.47;;;;;;;8.58;68.84;97025.47;6075931;29;20779;-43
2023/04/25 00:19:10;;;;;;;2.67;1.70;;;;;;;8.64;66.86;97023.69;6079555;29;20232;-43
2023/04/25 00:22:13;;;;;;;2.60;1.30;;;;;;;8.71;68.78;97019.00;6074233;29;20241;-43
2023/04/25 00:25:15;;;;;;;1.67;1.50;;;;;;;8.71;67.71;97019.00;6077753;29;20768;-44
2023/04/25 00:28:17;;;;;;;2.63;1.50;;;;;;;8.77;69.15;97018.03;6076554;29;20383;-42
2023/04/25 00:31:19;;;;;;;3.27;1.37;;;;;;;8.68;69.29;97033.56;6061971;29;20235;-42
2023/04/25 00:34:21;;;;;;;3.03;1.40;;;;;;;8.72;66.11;97013.44;6076218;29;20247;-43
2023/04/25 00:37:24;;;;;;;2.47;1.40;;;;;;;8.84;66.60;97015.19;6076588;29;20227;-44
2023/04/25 00:40:26;;;;;;;2.67;1.70;;;;;;;8.81;65.54;97016.47;6062659;29;20252;-43
2023/04/25 00:43:32;;;;;;;1.80;1.50;;;;;;;8.81;66.48;97020.97;6076222;29;20304;-43
2023/04/25 00:46:35;;;;;;;1.40;1.30;;;;;;;8.75;69.02;97020.91;6079176;29;20245;-44
2023/04/25 00:49:40;;;;;;;1.83;1.40;;;;;;;8.53;69.66;97015.59;6076334;29;20739;-42
2023/04/25 00:52:47;;;;;;;2.17;1.90;;;;;;;8.67;65.73;97004.59;6068370;29;20303;-42
2023/04/25 00:55:53;;;;;;;2.40;1.70;;;;;;;8.63;67.18;97012.28;6076193;29;20247;-42
2023/04/25 00:58:56;;;;;;;2.83;1.40;;;;;;;8.54;68.22;97011.06;6075912;29;20240;-43
2023/04/25 01:02:05;;;;;;;2.27;1.60;;;;;;;8.59;67.52;97013.00;6076572;29;20852;-42
2023/04/25 01:05:08;;;;;;;1.77;1.63;;;;;;;8.43;69.59;97004.84;6076016;29;20249;-43
2023/04/25 01:08:11;;;;;;;2.00;1.40;;;;;;;8.33;71.56;97003.84;6072938;29;20308;-45
2023/04/25 01:11:13;;;;;;;2.67;1.40;;;;;;;8.31;70.31;97005.94;6074477;29;20747;-44
2023/04/25 01:14:16;;;;;;;1.50;1.40;;;;;;;8.31;69.73;97006.75;6075879;29;20319;-43
2023/04/25 01:17:19;;;;;;;3.03;1.87;;;;;;;8.48;65.41;96996.94;6071781;29;20232;-42
2023/04/25 01:20:28;;;;;;;2.80;1.67;;;;;;;8.52;66.75;97000.72;6075721;29;20289;-45
2023/04/25 01:23:33;;;;;;;1.97;1.63;;;;;;;8.45;69.83;96994.75;6076770;29;20641;-43
2023/04/25 01:26:36;;;;;;;2.17;1.70;;;;;;;8.33;72.16;96993.25;6058439;29;20724;-44
2023/04/25 01:29:39;;;;;;;4.23;1.73;;;;;;;8.25;71.66;97000.56;6075618;29;20287;-43
2023/04/25 01:32:42;;;;;;;2.47;1.53;;;;;;;8.11;73.06;96995.81;6075195;29;20239;-43
2023/04/25 01:35:45;;;;;;;2.30;1.73;;;;;;;8.27;69.17;96997.66;6061337;29;20233;-43
2023/04/25 01:38:47;;;;;;;2.77;2.07;;;;;;;8.26;70.94;96994.19;6076117;29;20239;-43
2023/04/25 01:41:49;;;;;;;1.70;1.60;;;;;;;8.18;71.28;96996.47;6073960;29;20267;-44
2023/04/25 01:44:51;;;;;;;3.13;1.90;;;;;;;8.28;66.96;96997.44;6075144;29;20236;-42
2023/04/25 01:47:54;;;;;;;5.20;1.80;;;;;;;8.73;65.17;96996.47;6060271;29;20240;-43
2023/04/25 01:50:57;;;;;;;3.70;2.17;;;;;;;8.62;65.11;96999.22;6060691;29;20330;-44
2023/04/25 01:54:00;;;;;;;2.23;1.47;;;;;;;8.45;68.38;96992.09;6058449;29;20231;-43
2023/04/25 01:57:06;;;;;;;4.20;1.70;;;;;;;8.30;70.56;96994.53;6057822;29;20247;-43
2023/04/25 02:00:11;;;;;;;2.80;1.77;;;;;;;8.21;66.98;97001.28;6066395;29;20248;-44
2023/04/25 02:03:13;;;;;;;4.87;1.80;;;;;;;8.09;70.33;96997.94;6070251;29;20232;-43
2023/04/25 02:06:16;;;;;;;3.17;1.90;;;;;;;8.09;70.52;96990.78;6058104;29;20284;-42
2023/04/25 02:09:20;;;;;;;3.43;2.30;;;;;;;8.16;67.53;96993.25;6055568;29;20731;-43
2023/04/25 02:12:27;;;;;;;4.80;2.17;;;;;;;8.06;69.32;96987.78;6062714;29;20239;-43
2023/04/25 02:15:48;;;;;;;3.20;1.70;;;;;;;7.99;70.43;96999.38;6074267;29;20580;-43
2023/04/25 02:18:53;;;;;;;5.07;1.70;;;;;;;7.80;72.06;96999.84;6065079;29;20281;-42
2023/04/25 02:21:56;;;;;;;3.67;2.20;;;;;;;7.68;73.18;96992.75;6073890;29;20239;-42
2023/04/25 02:24:59;;;;;;;2.60;1.87;;;;;;;7.68;70.84;96991.97;6057049;29;20384;-42
2023/04/25 02:28:02;;;;;;;3.27;2.20;;;;;;;7.85;68.02;96999.94;6065354;29;20739;-43
2023/04/25 02:31:05;;;;;;;2.97;2.00;;;;;;;7.96;67.46;97002.50;6056327;29;20699;-47
2023/04/25 02:34:08;;;;;;;2.60;2.03;;;;;;;8.01;67.07;96994.63;6064184;29;20312;-44
2023/04/25 02:37:12;;;;;;;3.00;1.63;;;;;;;7.90;68.78;96982.25;6057350;29;20247;-43
2023/04/25 02:40:14;;;;;;;4.10;2.30;;;;;;;7.72;71.60;96987.78;6073656;29;20342;-43
2023/04/25 02:43:17;;;;;;;2.47;1.63;;;;;;;7.56;71.20;96988.59;6059640;29;20603;-46
2023/04/25 02:46:20;;;;;;;1.83;1.50;;;;;;;7.47;72.71;96986.31;6059104;29;20251;-42
2023/04/25 02:49:40;;;;;;;2.17;1.67;;;;;;;7.50;72.02;96982.41;6073689;29;20243;-43
2023/04/25 02:52:43;;;;;;;1.67;1.50;;;;;;;7.49;72.53;96970.19;6055751;29;20310;-46
2023/04/25 02:55:49;;;;;;;2.20;2.00;;;;;;;7.62;69.23;96966.41;6056882;29;20242;-43
2023/04/25 02:58:52;;;;;;;2.80;1.77;;;;;;;7.74;68.14;96970.63;6066935;29;20240;-42
2023/04/25 03:01:54;;;;;;;3.83;1.60;;;;;;;7.74;70.66;96962.66;6057228;29;20242;-42
2023/04/25 03:04:58;;;;;;;2.17;1.97;;;;;;;7.67;69.71;96961.19;6056483;29;20300;-43
2023/04/25 03:08:02;;;;;;;1.77;1.63;;;;;;;7.55;70.27;96966.59;6056271;29;20271;-43
2023/04/25 03:11:07;;;;;;;4.00;1.77;;;;;;;7.44;71.69;96947.06;6051882;29;20724;-43
2023/04/25 03:14:09;;;;;;;3.60;2.10;;;;;;;7.48;69.53;96971.22;6056209;29;20232;-43
2023/04/25 03:17:12;;;;;;;2.00;1.80;;;;;;;7.48;68.85;96961.41;6072264;29;20720;-43
2023/04/25 03:20:14;;;;;;;2.57;2.23;;;;;;;7.49;68.36;96951.66;6073346;29;20550;-42
2023/04/25 03:23:17;;;;;;;3.30;1.90;;;;;;;7.44;70.06;96959.50;6056431;29;20708;-44
2023/04/25 03:26:20;;;;;;;2.90;2.10;;;;;;;7.35;70.61;96958.28;6056610;29;20239;-43
2023/04/25 03:29:25;;;;;;;2.87;2.23;;;;;;;7.39;69.09;96965.53;6057209;29;20242;-45
2023/04/25 03:32:30;;;;;;;3.00;2.00;;;;;;;7.33;69.21;96969.09;6054611;29;20310;-44
2023/04/25 03:35:32;;;;;;;3.03;2.00;;;;;;;7.29;70.19;96970.66;6056738;29;20229;-42
2023/04/25 03:38:35;;;;;;;3.97;2.00;;;;;;;7.19;72.98;96973.09;6056926;29;20240;-43
2023/04/25 03:41:39;;;;;;;2.00;1.87;;;;;;;7.05;73.19;96983.19;6056925;29;20229;-42
2023/04/25 03:44:46;;;;;;;1.90;1.80;;;;;;;6.92;73.14;96981.59;6055332;29;20248;-46
2023/04/25 03:47:49;;;;;;;2.90;2.10;;;;;;;6.91;72.98;96985.31;6058957;29;20326;-42
2023/04/25 03:50:52;;;;;;;2.43;2.20;;;;;;;6.83;72.45;96985.66;6056898;29;20240;-45
2023/04/25 03:53:55;;;;;;;2.33;1.60;;;;;;;6.83;73.62;96990.16;6056019;29;20274;-45
2023/04/25 03:57:06;;;;;;;2.40;2.00;;;;;;;6.73;74.00;96988.09;6071687;29;20232;-43
2023/04/25 04:00:12;;;;;;;2.30;1.87;;;;;;;6.67;74.02;96994.34;6058746;29;20212;-42
2023/04/25 04:03:14;;;;;;;3.80;2.00;;;;;;;6.59;74.31;97000.78;6072018;29;20224;-45
2023/04/25 04:06:18;;;;;;;2.17;1.97;;;;;;;6.46;75.29;97001.84;6054300;29;20665;-42
2023/04/25 04:09:24;;;;;;;3.20;2.10;;;;;;;6.41;75.95;97009.69;6054381;29;20347;-44
2023/04/25 04:12:28;;;;;;;2.23;2.03;;;;;;;6.27;75.83;97003.03;6059144;29;20600;-42
2023/04/25 04:15:32;;;;;;;2.60;2.07;;;;;;;6.18;77.00;97007.03;6053336;29;20258;-46
2023/04/25 04:18:35;;;;;;;1.80;1.70;;;;;;;6.09;77.20;97006.56;6064428;29;20720;-46
2023/04/25 04:21:38;;;;;;;1.60;1.50;;;;;;;6.02;76.86;97010.38;6056631;29;20730;-45
2023/04/25 04:24:43;;;;;;;3.37;2.10;;;;;;;5.98;77.64;97007.38;6059808;29;20245;-43
2023/04/25 04:27:48;;;;;;;2.00;1.80;;;;;;;5.94;77.20;97009.66;6055110;29;20713;-43
2023/04/25 04:31:00;;;;;;;3.27;1.90;;;;;;;5.91;77.41;97009.28;6072011;29;20243;-48
2023/04/25 04:34:04;;;;;;;3.57;2.00;;;;;;;5.83;77.43;96997.22;6058730;29;20268;-47
2023/04/25 04:37:08;;;;;;;2.20;1.80;;;;;;;5.78;77.93;97006.88;6055319;29;20243;-46
2023/04/25 04:40:10;;;;;;;3.60;2.20;;;;;;;5.76;78.79;97009.72;6054661;29;20251;-47
2023/04/25 04:43:20;;;;;;;2.57;2.07;;;;;;;5.62;79.21;97006.50;6071090;29;20237;-46
2023/04/25 04:46:42;;;;;;;2.13;1.90;;;;;;;5.55;79.79;97016.34;6076082;29;20254;-42
2023/04/25 04:50:03;;;;;;;2.57;2.03;;;;;;;5.26;79.97;96986.28;6077473;29;20237;-42
2023/04/25 04:53:16;;;;;;;1.70;1.60;;;;;;;5.41;80.14;97013.09;6059708;29;20371;-43
2023/04/25 04:56:20;;;;;;;3.13;2.27;;;;;;;5.46;80.31;97014.25;6075437;29;20238;-42
2023/04/25 04:59:29;;;;;;;3.60;2.80;;;;;;;5.68;78.70;97010.06;6076807;29;20344;-42
2023/04/25 05:03:01;;;;;;;4.87;2.40;;;;;;;5.74;78.59;97016.28;6002358;29;20238;-42
2023/04/25 05:06:16;;;;;;;2.87;2.23;;;;;;;5.92;76.84;97009.09;6059229;29;20730;-43
2023/04/25 05:09:27;;;;;;;2.60;2.37;;;;;;;5.99;77.32;97019.56;6075057;29;20240;-43
2023/04/25 05:12:44;;;;;;;4.30;2.87;;;;;;;5.91;76.84;97004.00;6076722;29;20253;-44
2023/04/25 05:15:56;;;;;;;2.93;2.63;;;;;;;6.01;77.03;97014.03;6058369;29;20232;-42
2023/04/25 05:19:23;;;;;;;5.27;2.90;;;;;;;6.39;74.96;97011.75;6059917;29;20245;-42
2023/04/25 05:22:44;;;;;;;2.57;2.37;;;;;;;6.38;75.48;97015.44;6075328;29;20297;-42
2023/04/25 05:26:20;;;;;;;2.33;2.13;;;;;;;6.59;74.45;97003.44;6049540;29;20278;-42
2023/04/25 05:29:41;;;;;;;3.07;2.77;;;;;;;6.78;73.54;97009.38;6075018;29;20235;-42
2023/04/25 05:33:08;;;;;;;3.17;2.57;;;;;;;7.16;69.74;96997.41;6058397;29;20247;-43
2023/04/25 05:36:11;;;;;;;2.77;2.57;;;;;;;7.08;71.57;97003.09;6061123;29;20216;-42
2023/04/25 05:39:17;;;;;;;2.73;2.37;;;;;;;6.96;74.28;97003.13;6067207;29;20649;-43
2023/04/25 05:42:45;;;;;;;3.00;2.03;;;;;;;6.88;73.95;96996.34;6075167;29;20331;-43
2023/04/25 05:46:07;;;;;;;4.33;2.27;;;;;;;6.75;74.90;96987.88;6058107;29;20241;-42
2023/04/25 05:49:25;;;;;;;2.33;2.07;;;;;;;6.72;75.52;96992.59;6071288;29;20240;-42
2023/04/25 05:52:54;;;;;;;2.50;2.30;;;;;;;6.81;75.06;96990.41;6057552;29;20235;-42
2023/04/25 05:56:04;;;;;;;3.43;1.97;;;;;;;7.06;72.31;96978.69;6064805;29;20610;-45
2023/04/25 05:59:06;;;;;;;2.97;2.53;;;;;;;7.44;69.30;96989.47;6074043;29;20235;-43
2023/04/25 06:02:08;;;;;;;2.80;2.43;;;;;;;7.66;68.14;96988.75;6053262;29;20239;-43
2023/04/25 06:05:12;;;;;;;2.53;2.20;;;;;;;7.92;66.83;96990.75;6065259;29;20309;-44
2023/04/25 06:08:15;;;;;;;2.10;1.90;;;;;;;8.30;65.28;96983.91;6064005;29;20322;-43
2023/04/25 06:11:18;;;;;;;4.00;2.40;;;;;;;8.28;65.01;96988.66;6062961;29;20732;-42
2023/04/25 06:14:21;;;;;;;2.27;2.03;;;;;;;8.76;61.59;96980.03;6053314;29;20240;-42
2023/04/25 06:17:25;;;;;;;1.93;1.50;;;;;;;8.62;64.29;96977.97;6072705;29;20243;-42
2023/04/25 06:20:28;;;;;;;2.50;2.10;;;;;;;8.97;61.60;96974.97;6078752;29;20232;-42
2023/04/25 06:23:33;;;;;;;2.80;2.23;;;;;;;8.92;63.04;96970.41;6045449;29;20244;-43
2023/04/25 06:26:41;;;;;;;2.07;1.87;;;;;;;9.01;62.34;96976.06;6057910;29;20335;-45
2023/04/25 06:29:44;;;;;;;2.43;2.23;;;;;;;9.33;58.50;96962.06;6056447;29;20372;-46
2023/04/25 06:32:48;;;;;;;2.30;1.93;;;;;;;9.30;60.76;96969.47;6056847;29;20236;-43
2023/04/25 06:35:51;;;;;;;2.23;1.80;;;;;;;9.26;59.94;96978.19;6064862;29;20720;-42
2023/04/25 06:38:58;;;;;;;2.53;2.00;;;;;;;9.67;57.55;96973.28;6049629;29;20593;-45
2023/04/25 06:42:01;;;;;;;4.93;2.90;;;;;;;9.65;57.71;96983.34;6057629;29;20237;-43
2023/04/25 06:45:34;;;;;;;3.07;2.47;;;;;;;9.85;58.42;96980.84;6056128;29;20236;-42
2023/04/25 06:48:36;;;;;;;2.53;2.03;;;;;;;10.15;56.52;96979.47;6058072;29;20708;-46
2023/04/25 06:51:40;;;;;;;3.23;2.10;;;;;;;10.22;55.83;96972.88;6057528;29;20323;-46
2023/04/25 06:54:44;;;;;;;3.77;2.37;;;;;;;10.25;56.62;96971.59;6056163;29;20852;-43
2023/04/25 06:57:57;;;;;;;4.73;2.20;;;;;;;10.41;55.88;96975.97;6055983;29;20255;-43
2023/04/25 07:01:26;;;;;;;2.03;1.83;;;;;;;10.63;54.04;96961.69;6064396;29;20258;-43
2023/04/25 07:04:30;;;;;;;1.83;1.73;;;;;;;10.67;56.27;96957.44;6064185;29;20249;-43
2023/04/25 07:07:33;;;;;;;3.03;1.70;;;;;;;10.98;53.35;96963.69;6056421;29;20244;-44
2023/04/25 07:10:36;;;;;;;2.30;1.80;;;;;;;11.04;53.03;96952.00;6055244;29;20241;-44
2023/04/25 07:13:39;;;;;;;3.47;1.77;;;;;;;11.25;52.37;96963.50;6060170;29;20242;-44
2023/04/25 07:16:41;;;;;;;2.60;2.10;;;;;;;11.50;51.53;96944.06;6059099;29;20358;-46
2023/04/25 07:19:45;;;;;;;1.53;1.33;;;;;;;11.45;52.59;96954.72;6072846;29;20240;-45
2023/04/25 07:22:47;;;;;;;2.53;1.57;;;;;;;11.35;51.46;96942.97;6055841;29;20729;-43
2023/04/25 07:25:50;;;;;;;1.93;1.77;;;;;;;11.37;51.91;96956.84;6056603;29;20736;-44
2023/04/25 07:28:55;;;;;;;2.27;2.07;;;;;;;11.36;51.30;96951.78;6072154;29;20773;-44
2023/04/25 07:31:59;;;;;;;3.23;1.73;;;;;;;11.30;51.70;96953.63;6060038;29;20230;-47
2023/04/25 07:35:03;;;;;;;1.87;1.77;;;;;;;11.46;52.94;96943.78;6055498;29;20234;-44
2023/04/25 07:38:06;;;;;;;4.00;1.50;;;;;;;11.37;55.12;96954.16;6055605;29;20246;-44
2023/04/25 07:41:09;;;;;;;3.13;2.20;;;;;;;11.43;52.11;96954.19;6057337;29;20249;-43
2023/04/25 07:44:11;;;;;;;3.60;2.37;;;;;;;11.16;53.42;96954.41;6063768;29;20242;-45
2023/04/25 07:47:14;;;;;;;2.23;2.03;;;;;;;10.94;55.03;96954.63;6055632;29;20631;-45
2023/04/25 07:50:17;;;;;;;3.73;2.20;;;;;;;11.02;53.96;96949.56;6053792;29;20607;-43
2023/04/25 07:53:21;;;;;;;1.87;1.77;;;;;;;11.11;52.74;96941.88;6056028;29;20247;-42
2023/04/25 07:56:28;;;;;;;2.37;1.90;;;;;;;11.05;53.92;96948.25;6060301;29;20238;-46
2023/04/25 07:59:47;;;;;;;2.23;2.03;;;;;;;10.93;53.40;96945.00;6055751;29;20234;-45
2023/04/25 08:02:50;;;;;;;3.13;2.00;;;;;;;10.78;54.89;96940.44;6053705;29;20718;-45
2023/04/25 08:05:55;;;;;;;3.57;2.20;;;;;;;10.90;54.81;96933.03;6055935;29;20454;-45
2023/04/25 08:08:59;;;;;;;2.53;2.17;;;;;;;11.36;54.97;96933.13;6069217;29;20589;-46
2023/04/25 08:12:09;;;;;;;2.57;2.10;;;;;;;11.44;53.52;96929.13;6065587;29;20248;-44
2023/04/25 08:15:13;;;;;;;1.73;1.63;;;;;;;11.72;54.16;96922.47;6084160;29;20243;-44
2023/04/25 08:18:17;;;;;;;5.13;1.97;;;;;;;11.80;51.80;96920.06;6082058;29;20367;-44
2023/04/25 08:21:22;;;;;;;2.47;2.10;;;;;;;11.97;51.58;96922.50;6086546;29;20230;-45
2023/04/25 08:24:26;;;;;;;3.13;1.80;;;;;;;11.93;50.33;96916.09;6065787;29;20246;-44
2023/04/25 08:27:30;;;;;;;1.57;1.47;;;;;;;11.52;51.81;96891.25;6077989;29;20251;-44
2023/04/25 08:30:33;;;;;;;2.30;1.93;;;;;;;11.63;51.25;96912.34;6059977;29;20825;-45
2023/04/25 08:33:36;;;;;;;4.27;1.90;;;;;;;11.41;53.39;96914.44;6065485;29;20299;-44
2023/04/25 08:36:55;;;;;;;2.57;1.77;;;;;;;11.79;53.55;96920.34;6054965;29;20232;-45
2023/04/25 08:40:25;;;;;;;1.90;1.70;;;;;;;11.95;49.51;96921.94;6076053;29;20252;-44
2023/04/25 08:43:34;;;;;;;2.23;2.00;;;;;;;11.84;54.97;96917.69;6065000;29;20239;-43
2023/04/25 08:46:41;;;;;;;2.17;1.97;;;;;;;11.92;52.48;96898.47;6079984;29;20579;-46
2023/04/25 08:49:53;;;;;;;4.33;2.17;;;;;;;12.39;52.00;96913.31;6064721;29;20243;-44
2023/04/25 08:53:01;;;;;;;2.00;1.67;;;;;;;12.37;51.86;96902.91;6067062;29;21029;-44
2023/04/25 08:56:09;;;;;;;3.60;1.63;;;;;;;12.73;49.83;96910.78;6059478;29;20228;-48
2023/04/25 08:59:12;;;;;;;1.93;1.80;;;;;;;12.84;50.40;96903.50;6058850;29;22166;-48
2023/04/25 09:02:19;;;;;;;4.17;1.70;;;;;;;12.87;48.92;96902.97;6060472;29;20283;-45
2023/04/25 09:05:24;;;;;;;3.13;1.97;;;;;;;12.65;49.32;96922.81;6062576;29;20356;-49
2023/04/25 09:08:28;;;;;;;2.37;1.63;;;;;;;12.24;50.55;96924.03;6066050;29;20235;-49
2023/04/25 09:11:31;;;;;;;2.50;1.30;;;;;;;12.13;52.80;96924.06;6074319;29;20247;-48
2023/04/25 09:14:36;;;;;;;3.13;1.30;;;;;;;11.91;49.26;96933.41;6058825;29;20239;-43
2023/04/25 09:17:44;;;;;;;1.97;1.20;;;;;;;11.51;47.40;96930.47;6061107;29;20235;-42
2023/04/25 09:20:47;;;;;;;2.10;0.93;;;;;;;11.48;46.97;96923.00;6062475;29;20719;-42
2023/04/25 09:24:02;;;;;;;2.30;1.07;;;;;;;11.58;47.30;96928.34;6058496;29;20239;-43
2023/04/25 09:27:06;;;;;;;2.50;0.97;;;;;;;11.54;49.27;96921.94;6065714;29;20238;-43
2023/04/25 09:30:10;;;;;;;1.70;1.10;;;;;;;11.59;48.77;96932.59;6075786;29;20696;-43
2023/04/25 09:33:45;;;;;;;3.17;1.30;;;;;;;11.71;49.58;96928.88;6061089;29;20293;-42
2023/04/25 09:36:48;;;;;;;1.40;1.30;;;;;;;11.90;49.74;96932.63;6075467;29;20698;-43
2023/04/25 09:40:07;;;;;;;1.87;1.70;;;;;;;11.87;50.52;96938.47;6062456;29;20251;-43
2023/04/25 09:43:25;;;;;;;1.40;1.30;;;;;;;11.88;49.12;96929.44;6061168;29;20601;-43
2023/04/25 09:46:36;;;;;;;3.53;1.50;;;;;;;11.79;49.97;96931.00;6062590;29;20260;-43
2023/04/25 09:49:44;;;;;;;2.13;1.87;;;;;;;11.76;50.57;96927.00;6064575;29;20617;-43
2023/04/25 09:53:02;;;;;;;2.03;1.63;;;;;;;11.71;51.25;96927.00;6065669;29;20321;-43
2023/04/25 09:56:13;;;;;;;3.33;1.30;;;;;;;11.92;50.91;96924.34;6058396;29;20243;-46
2023/04/25 09:59:17;;;;;;;2.40;1.47;;;;;;;12.40;50.28;96914.91;6066299;29;20723;-43
2023/04/25 10:02:22;;;;;;;2.43;1.43;;;;;;;12.60;46.93;96906.81;6073264;29;20239;-43
2023/04/25 10:05:31;;;;;;;3.63;2.03;;;;;;;12.35;50.64;96923.72;6057456;29;20368;-44
2023/04/25 10:08:36;;;;;;;3.40;2.00;;;;;;;11.96;52.66;96934.22;6072968;29;20239;-43
2023/04/25 10:11:40;;;;;;;2.03;1.83;;;;;;;11.60;55.22;96928.06;6057177;29;20287;-43
2023/04/25 10:14:43;;;;;;;4.00;1.83;;;;;;;11.14;58.12;96952.00;6073829;29;20247;-42
2023/04/25 10:17:45;;;;;;;3.60;1.80;;;;;;;10.93;57.02;96937.81;6062516;29;20238;-43
2023/04/25 10:20:48;;;;;;;2.60;1.80;;;;;;;10.77;58.27;96946.81;6062286;29;20359;-48
2023/04/25 10:23:55;;;;;;;1.77;1.60;;;;;;;10.35;60.36;96942.38;6074969;29;20610;-43
2023/04/25 10:27:01;;;;;;;2.63;1.60;;;;;;;9.98;61.39;96919.22;6073836;29;20739;-44
2023/04/25 10:30:16;;;;;;;2.10;1.40;;;;;;;9.73;61.78;96914.53;6071325;29;20702;-43
2023/04/25 10:33:28;;;;;;;1.70;1.23;;;;;;;9.88;61.91;96936.97;6073119;29;20556;-45
2023/04/25 10:36:32;;;;;;;3.30;1.60;;;;;;;10.04;63.26;96925.38;6073740;29;20337;-42
2023/04/25 10:39:35;;;;;;;1.50;1.30;;;;;;;10.52;61.93;96919.03;6070200;29;20748;-46
2023/04/25 10:42:37;;;;;;;1.70;1.53;;;;;;;11.05;60.25;96921.59;6071741;29;20233;-42
2023/04/25 10:45:52;;;;;;;1.87;1.27;;;;;;;11.62;59.42;96902.75;6073295;29;20228;-43
2023/04/25 10:48:56;;;;;;;2.23;1.30;;;;;;;12.22;56.10;96891.47;6073259;29;20870;-43
2023/04/25 10:52:30;;;;;;;1.80;1.20;;;;;;;12.51;53.57;96879.09;6061406;29;20315;-43
2023/04/25 10:55:51;;;;;;;1.50;1.30;;;;;;;12.79;51.25;96879.47;6062147;29;20258;-44
2023/04/25 10:59:21;;;;;;;2.07;1.70;;;;;;;12.87;50.20;96847.63;6070350;29;20247;-43
2023/04/25 11:02:27;;;;;;;1.67;1.43;;;;;;;13.48;48.83;96862.47;6071447;29;20239;-45
2023/04/25 11:05:36;;;;;;;3.17;1.80;;;;;;;13.36;46.68;96851.34;6056852;29;20244;-43
2023/04/25 11:09:01;;;;;;;2.50;1.43;;;;;;;13.06;49.50;96853.13;6071308;29;20239;-44
2023/04/25 11:12:05;;;;;;;2.90;1.50;;;;;;;13.08;48.54;96850.97;6075379;29;20469;-44
2023/04/25 11:15:08;;;;;;;2.07;1.30;;;;;;;13.01;49.02;96853.16;6074538;29;20254;-44
2023/04/25 11:18:10;;;;;;;1.40;1.30;;;;;;;12.90;49.12;96854.28;6071772;29;20243;-44
2023/04/25 11:21:13;;;;;;;2.03;1.40;;;;;;;12.82;50.16;96857.56;6072570;29;20225;-44
2023/04/25 11:24:17;;;;;;;1.73;1.50;;;;;;;12.94;48.37;96870.56;6073100;29;20226;-45
2023/04/25 11:27:21;;;;;;;2.40;1.20;;;;;;;12.73;52.00;96885.94;6070717;29;20247;-44
2023/04/25 11:30:26;;;;;;;1.80;1.17;;;;;;;12.64;53.17;96907.88;6072971;29;20309;-46
2023/04/25 11:33:28;;;;;;;2.73;1.83;;;;;;;12.42;54.90;96918.13;6072623;29;20227;-44
2023/04/25 11:36:31;;;;;;;2.53;1.80;;;;;;;12.04;57.28;96922.22;6072740;29;20246;-42
2023/04/25 11:39:34;;;;;;;3.43;1.93;;;;;;;11.66;58.37;96921.66;6069958;29;20255;-44
2023/04/25 11:42:38;;;;;;;1.70;1.60;;;;;;;11.53;58.92;96923.00;6073109;29;20243;-43
2023/04/25 11:45:41;;;;;;;2.10;1.30;;;;;;;11.55;56.82;96920.88;6076810;29;20253;-44
2023/04/25 11:48:45;;;;;;;1.47;1.10;;;;;;;11.97;56.31;96930.50;6072163;29;20247;-43
2023/04/25 11:51:48;;;;;;;2.23;1.03;;;;;;;12.26;53.87;96919.22;6072332;29;20242;-47
2023/04/25 11:54:51;;;;;;;2.20;0.80;;;;;;;12.79;49.37;96928.38;6072504;29;20241;-45
2023/04/25 11:57:53;;;;;;;0.60;0.60;;;;;;;13.05;46.44;96933.59;6077487;29;20240;-44
2023/04/25 12:00:58;;;;;;;0.50;0.50;;;;;;;13.21;44.32;96932.47;6065982;29;20251;-44
2023/04/25 12:04:13;;;;;;;0.60;0.60;;;;;;;12.86;44.13;96936.13;6065726;29;20245;-42
2023/04/25 12:07:18;;;;;;;2.13;0.70;;;;;;;12.82;45.25;96922.50;6079748;29;20286;-45
2023/04/25 12:10:21;;;;;;;0.60;0.60;;;;;;;12.83;46.66;96944.69;6075657;29;20336;-44
2023/04/25 12:13:26;;;;;;;2.43;1.10;;;;;;;12.83;47.06;96950.03;6076827;29;20259;-48
2023/04/25 12:16:29;;;;;;;2.27;0.73;;;;;;;12.67;46.26;96940.47;6076982;29;20379;-45
2023/04/25 12:19:40;;;;;;;1.07;0.70;;;;;;;12.60;47.06;96951.44;6075894;29;20743;-45
2023/04/25 12:22:46;;;;;;;0.80;0.80;;;;;;;12.42;48.04;96934.16;6080985;29;20236;-43
2023/04/25 12:25:49;;;;;;;1.60;0.90;;;;;;;12.40;48.40;96939.75;6076938;29;20243;-44
2023/04/25 12:28:52;;;;;;;2.83;0.70;;;;;;;12.28;48.06;96938.44;6077335;29;20255;-44
2023/04/25 12:31:55;;;;;;;2.37;0.90;;;;;;;12.42;49.59;96942.16;6076192;29;20326;-46
2023/04/25 12:34:58;;;;;;;0.93;0.80;;;;;;;12.56;50.98;96924.50;6077073;29;20295;-45
2023/04/25 12:38:00;;;;;;;1.17;0.90;;;;;;;12.95;49.22;96953.16;6075613;29;20236;-44
2023/04/25 12:41:03;;;;;;;1.03;0.70;;;;;;;12.89;50.36;96940.91;6075809;29;20243;-44
2023/04/25 12:44:06;;;;;;;1.63;1.00;;;;;;;12.63;50.08;96932.19;6076970;29;20233;-45
2023/04/25 12:47:08;;;;;;;1.27;0.80;;;;;;;12.31;47.53;96925.34;6077510;29;20359;-42
2023/04/25 12:50:11;;;;;;;0.77;0.77;;;;;;;11.75;50.35;96911.25;6071990;29;20280;-43
2023/04/25 12:53:13;;;;;;;0.63;0.60;;;;;;;11.67;51.19;96911.78;6076296;29;20251;-43
2023/04/25 12:56:15;;;;;;;0.80;0.70;;;;;;;11.57;51.30;96905.38;6076254;29;20726;-44
2023/04/25 12:59:19;;;;;;;0.77;0.60;;;;;;;11.72;49.45;96911.78;6075932;29;20242;-44
2023/04/25 13:02:22;;;;;;;2.67;0.80;;;;;;;11.89;51.39;96915.00;6076176;29;20668;-44
2023/04/25 13:05:25;;;;;;;1.37;0.77;;;;;;;12.01;48.37;96904.84;6075331;29;20238;-46
2023/04/25 13:08:28;;;;;;;2.53;0.67;;;;;;;12.09;49.12;96908.84;6073650;29;20239;-48
2023/04/25 13:11:31;;;;;;;1.37;0.63;;;;;;;12.31;48.36;96895.97;6075548;29;20235;-43
2023/04/25 13:14:33;;;;;;;1.13;0.70;;;;;;;12.51;45.84;96884.44;6075658;29;20343;-45
2023/04/25 13:17:36;;;;;;;0.70;0.70;;;;;;;12.62;44.26;96898.53;6076848;29;20231;-43
2023/04/25 13:20:38;;;;;;;1.57;0.70;;;;;;;12.93;46.42;96893.03;6074861;29;20310;-47
2023/04/25 13:23:46;;;;;;;2.70;0.80;;;;;;;12.89;45.36;96893.59;6075649;29;20246;-44
2023/04/25 13:26:49;;;;;;;0.63;0.63;;;;;;;13.02;42.98;96897.53;6075461;29;20248;-46
2023/04/25 13:29:52;;;;;;;2.87;1.10;;;;;;;13.05;45.93;96909.53;6074658;29;20345;-47
2023/04/25 13:32:56;;;;;;;0.90;0.73;;;;;;;13.03;44.86;96922.41;6077032;29;20260;-44
2023/04/25 13:36:01;;;;;;;1.73;1.00;;;;;;;12.95;46.20;96913.06;6075592;29;20284;-48
2023/04/25 13:39:05;;;;;;;1.37;0.70;;;;;;;12.82;47.80;96940.41;6075305;29;20242;-43
2023/04/25 13:42:08;;;;;;;1.03;0.83;;;;;;;12.71;46.49;96941.50;6075050;29;20227;-47
2023/04/25 13:45:10;;;;;;;0.73;0.70;;;;;;;12.39;46.97;96934.69;6074174;29;20681;-43
2023/04/25 13:48:13;;;;;;;0.90;0.70;;;;;;;12.18;50.61;96930.47;6075737;29;20244;-44
2023/04/25 13:51:17;;;;;;;2.23;0.90;;;;;;;11.97;48.82;96911.81;6075302;29;20231;-47
2023/04/25 13:54:19;;;;;;;2.17;0.57;;;;;;;12.05;51.02;96934.47;6074562;29;20604;-47
2023/04/25 13:57:23;;;;;;;0.73;0.50;;;;;;;11.63;51.25;96933.69;6074097;29;20238;-48
2023/04/25 14:00:26;;;;;;;1.13;0.50;;;;;;;11.60;52.44;96933.41;6073945;29;20235;-48
2023/04/25 14:03:28;;;;;;;1.10;0.70;;;;;;;11.61;51.50;96937.66;6075860;29;20237;-48
2023/04/25 14:06:32;;;;;;;2.10;0.50;;;;;;;11.47;53.22;96931.25;6065079;29;20294;-47
2023/04/25 14:09:35;;;;;;;0.70;0.70;;;;;;;11.48;51.16;96933.69;6072221;29;20624;-47
2023/04/25 14:12:37;;;;;;;1.10;0.70;;;;;;;11.23;52.93;96928.28;6075418;29;20307;-42
2023/04/25 14:15:39;;;;;;;1.37;0.60;;;;;;;11.30;53.76;96939.50;6074226;29;20251;-42
2023/04/25 14:18:41;;;;;;;0.80;0.40;;;;;;;11.46;51.97;96935.00;6075849;29;20235;-42
2023/04/25 14:21:44;;;;;;;0.77;0.53;;;;;;;11.43;51.27;96936.34;6074139;29;20232;-42
2023/04/25 14:24:47;;;;;;;0.80;0.70;;;;;;;11.67;51.54;96933.13;6071950;29;20236;-43
2023/04/25 14:27:50;;;;;;;1.57;0.40;;;;;;;11.62;51.52;96934.75;6073726;29;20787;-42
2023/04/25 14:30:52;;;;;;;0.80;0.50;;;;;;;11.81;50.04;96918.19;6072112;29;20314;-42
2023/04/25 14:33:55;;;;;;;0.50;0.50;;;;;;;11.90;48.67;96919.28;6074595;29;20322;-42
2023/04/25 14:37:00;;;;;;;0.47;0.47;;;;;;;11.89;49.12;96936.38;6073433;29;20717;-42
2023/04/25 14:40:04;;;;;;;0.53;0.53;;;;;;;11.83;49.51;96950.78;6073540;29;20245;-42